AirNav   Air Wisconsin Up To $57,000 Bonus
 
 977 users online  

05MI Oakwood Heritage Hospital Heliport
Taylor, Michigan, USA

GOING TO TAYLOR?


FAA INFORMATION EFFECTIVE 30 JANUARY 2020

Location

FAA Identifier: 05MI
Lat/Long: 42-14-11.0000N 083-16-35.0000W
42-14.183333N 083-16.583333W
42.2363889,-83.2763889
(estimated)
Elevation: 621 ft. / 189 m (estimated)
From city: 1 mile SW of TAYLOR, MI
Time zone: UTC -5 (UTC -4 during Daylight Saving Time)
Zip code: 48180

Heliport Operations

Heliport use: Private use. Permission required prior to landing
Activation date: 01/2011
Control tower: no
ARTCC: CLEVELAND CENTER
FSS: LANSING FLIGHT SERVICE STATION
Attendance: UNATNDD
Wind indicator: yes
Segmented circle: no

Heliport Communications

WX ASOS at DTW (4 nm SW): 133.675 (734-955-5015)
WX AWOS-3 at ONZ (10 nm SE): 119.675 (734-692-9686)
WX ASOS at YIP (11 nm W): 132.35 (734-961-6843)
WX ASOS at DET (16 nm NE): PHONE 313-371-9696
WX AWOS-3 at VLL (19 nm N): 119.475 (248-288-4649)
WX AWOS-3 at TTF (19 nm S): 119.075 (734-384-0259)

Nearby radio navigation aids

VOR radial/distance  VOR name  Freq  Var
DXOr077/4.2DETROIT VOR/DME113.4006W
CRLr038/13.9CARLETON VOR/DME115.7003W
SVMr129/17.5SALEM VORTAC114.3003W
YQGr274/19.9WINDSOR VOR/DME113.8006W

 
NDB name  Hdg/Dist  Freq  Var  ID
GROSSE ILE333/9.841907WRYS .-. -.-- ...
TECUMSEH072/29.723906WTCU - -.-. ..-

Heliport Services

Runway Information

Helipad H1

Dimensions: 42 x 30 ft. / 13 x 9 m
Surface: concrete, in fair condition
Runway edge lights: PERI
Traffic pattern: leftleft

Heliport Ownership and Management from official FAA records

Ownership: Privately-owned
Owner: OAKWOOD HERITAGE HOSPITAL
10000 TELEGRAPH RD
TAYLOR, MI 48180
Phone 313-295-5000
Manager: WILLIAM LEAVENS
10000 TELEGRAPH RD
TAYLOR, MI 48180
Phone (313) 375-7069
DIRECTOR OF SECURITY / SAFETY

Additional Remarks

+175' UNLIT TOWER 594 FT NW OF HELIPORT.
FOR CD CTC DETROIT APCH AT 800-499-8181.

Instrument Procedures

There are no published instrument procedures at 05MI.

Some nearby airports with instrument procedures:

KDTW - Detroit Metropolitan Wayne County Airport (4 nm SW)
KONZ - Grosse Ile Municipal Airport (10 nm SE)
1D2 - Canton-Plymouth-Mettetal Airport (10 nm NW)
KYIP - Willow Run Airport (11 nm W)
KDET - Coleman A Young Municipal Airport (16 nm NE)
KVLL - Oakland/Troy Airport (19 nm N)
KTTF - Custer Airport (19 nm S)
 
Loc | Ops | Rwys | IFR | FBO | Links
Com | Nav | Svcs | Stats | Notes
Aerial photo
No photo
 
Sectional chart

 
Airport distance calculator
Flying to Oakwood Heritage Hospital Heliport? Find the distance to fly.

From to 05MI

Sunrise and sunset
Times for 19-Feb-2020
 Local
(UTC-5)
 Zulu
(UTC)
Morning civil twilight06:5611:56
Sunrise07:2512:25
Sunset18:0923:09
Evening civil twilight18:3823:38

Current date and time
Zulu (UTC)  19-Feb-2020 13:40:13
Local (UTC-5)  19-Feb-2020 08:40:13
 
METAR
KDTW 
3nm W 
191253Z 31010KT 10SM FEW029 FEW220 M06/M12 A3045 RMK AO2 SLP322 T10561117
KONZ 
10nm SE 
191315Z AUTO 33010KT 10SM CLR M05/M11 A3046 RMK AO2 T10471110
KYIP 
11nm W 
191253Z 32012KT 10SM CLR M05/M12 A3045 RMK AO2 SLP320 T10501122
CYQG 
14nm E 
191300Z AUTO 33012G18KT 9SM CLR M05/M12 A3045 RMK SLP322
KDET 
15nm NE 
191253Z 32011G18KT 10SM CLR M06/M12 A3045 RMK AO2 SLP319 T10561122
KVLL 
19nm N 
191315Z AUTO 29010G16KT 10SM CLR M06/M12 A3048 RMK AO2 T10601120
KTTF 
19nm S 
191316Z AUTO 32012KT 10SM CLR M05/M13 A3047 RMK AO2 T10501127
TAF
KDTW 
3nm W 
191135Z 1912/2018 30013KT P6SM SCT040 FM200100 33007KT P6SM OVC100 FM201300 35005KT P6SM SCT040
KYIP 
11nm W 
190535Z 1906/2006 28009KT P6SM SKC FM190700 29010KT P6SM SCT028 BKN035 FM191200 28010KT P6SM SKC FM200000 27008KT P6SM SCT100 BKN250
CYQG 
14nm E 
191141Z 1912/2012 31013G23KT P6SM SCT030 TEMPO 1912/1914 BKN020 FM191500 30010KT P6SM FEW025 RMK FCST BASED ON AUTO OBS. NXT FCST BY 191800Z
KDET 
15nm NE 
191135Z 1912/2012 30013KT P6SM SCT040 FM200100 33007KT P6SM OVC100
NOTAMs
Click for the latest NOTAMs
NOTAMs are issued by the DoD/FAA and will open in a separate window not controlled by AirNav.

 

 
 

Would you like to see your business listed on this page?

 If your business provides an interesting product or service to pilots, flight crews, aircraft, or users of the Oakwood Heritage Hospital Heliport, you should consider listing it here.  To start the listing process, click on the button below
 
Add a business
 

Other Pages about Oakwood Heritage Hospital Heliport

Update a link
 
Copyright © AirNav, LLC. All rights reserved. Privacy Policy  Contact